createdAt,value
2018-09-23T00:00:02.970Z,13.20
2018-09-23T00:02:31.877Z,13.20
2018-09-23T00:05:00.855Z,13.20
2018-09-23T00:07:29.802Z,13.20
2018-09-23T00:09:58.874Z,13.20
2018-09-23T00:12:27.771Z,13.20
2018-09-23T00:14:56.666Z,13.20
2018-09-23T00:17:25.555Z,13.10
2018-09-23T00:19:54.452Z,13.10
2018-09-23T00:22:23.382Z,13.10
2018-09-23T00:24:52.211Z,13.10
2018-09-23T00:27:21.102Z,13.10
2018-09-23T00:29:50.598Z,13.10
2018-09-23T00:32:21.851Z,13.10
2018-09-23T00:34:50.746Z,13.10
2018-09-23T00:37:19.646Z,13.00
2018-09-23T00:39:48.655Z,13.10
2018-09-23T00:42:17.531Z,13.10
2018-09-23T00:44:46.414Z,13.00
2018-09-23T00:47:15.298Z,13.00
2018-09-23T00:49:44.187Z,13.00
2018-09-23T00:52:13.054Z,13.10
2018-09-23T00:54:41.943Z,13.00
2018-09-23T00:57:10.809Z,13.10
2018-09-23T00:59:39.707Z,13.10
2018-09-23T01:02:08.619Z,13.10
2018-09-23T01:04:37.518Z,13.10
2018-09-23T01:07:06.438Z,13.10
2018-09-23T01:09:35.347Z,13.10
2018-09-23T01:12:04.266Z,13.10
2018-09-23T01:14:33.159Z,13.10
2018-09-23T01:17:02.090Z,13.20
2018-09-23T01:19:31.004Z,13.20
2018-09-23T01:21:59.926Z,13.20
2018-09-23T01:24:28.960Z,13.30
2018-09-23T01:26:57.850Z,13.20
2018-09-23T01:29:26.748Z,13.20
2018-09-23T01:31:55.647Z,13.10
2018-09-23T01:34:24.536Z,13.10
2018-09-23T01:36:53.550Z,13.00
2018-09-23T01:39:22.451Z,12.90
2018-09-23T01:41:51.318Z,13.00
2018-09-23T01:44:20.198Z,13.00
2018-09-23T01:46:49.063Z,12.80
2018-09-23T01:49:17.941Z,12.80
2018-09-23T01:51:46.813Z,12.70
2018-09-23T01:54:15.715Z,12.70
2018-09-23T01:56:44.570Z,12.70
2018-09-23T01:59:13.454Z,12.60
2018-09-23T02:01:42.339Z,12.60
2018-09-23T02:04:11.199Z,12.60
2018-09-23T02:06:40.096Z,12.50
2018-09-23T02:09:09.616Z,12.50
2018-09-23T02:11:38.499Z,12.50
2018-09-23T02:14:07.387Z,12.50
2018-09-23T02:16:36.302Z,12.50
2018-09-23T02:19:05.738Z,12.40
2018-09-23T02:21:34.635Z,12.40
2018-09-23T02:24:03.726Z,12.40
2018-09-23T02:26:32.666Z,12.40
2018-09-23T02:29:01.580Z,12.40
2018-09-23T02:31:30.527Z,12.40
2018-09-23T02:33:59.411Z,12.30
2018-09-23T02:36:28.344Z,12.30
2018-09-23T02:38:57.215Z,12.30
2018-09-23T02:41:26.114Z,12.30
2018-09-23T02:43:54.985Z,12.30
2018-09-23T02:46:23.863Z,12.20
2018-09-23T02:48:52.739Z,12.20
2018-09-23T02:51:21.627Z,12.10
2018-09-23T02:53:50.494Z,12.00
2018-09-23T02:56:19.390Z,12.10
2018-09-23T02:58:48.262Z,12.10
2018-09-23T03:01:17.174Z,12.10
2018-09-23T03:03:46.057Z,12.10
2018-09-23T03:06:14.972Z,12.20
2018-09-23T03:08:43.835Z,12.20
2018-09-23T03:11:12.788Z,12.10
2018-09-23T03:13:41.645Z,12.10
2018-09-23T03:16:10.687Z,12.10
2018-09-23T03:18:39.555Z,12.10
2018-09-23T03:21:08.439Z,12.10
2018-09-23T03:23:37.332Z,12.20
2018-09-23T03:26:06.199Z,12.20
2018-09-23T03:28:35.138Z,12.20
2018-09-23T03:31:04.068Z,12.20
2018-09-23T03:33:32.958Z,12.20
2018-09-23T03:36:01.887Z,12.30
2018-09-23T03:38:30.869Z,12.30
2018-09-23T03:40:59.770Z,12.30
2018-09-23T03:43:28.658Z,12.30
2018-09-23T03:45:57.570Z,12.30
2018-09-23T03:48:26.456Z,12.40
2018-09-23T03:50:55.492Z,12.40
2018-09-23T03:53:24.342Z,12.40
2018-09-23T03:55:53.223Z,12.40
2018-09-23T03:58:22.084Z,12.40
2018-09-23T04:00:50.978Z,12.50
2018-09-23T04:03:20.011Z,12.50
2018-09-23T04:05:48.881Z,12.50
2018-09-23T04:08:17.825Z,12.50
2018-09-23T04:10:46.720Z,12.50
2018-09-23T04:13:15.574Z,12.50
2018-09-23T04:15:44.450Z,12.50
2018-09-23T04:18:13.332Z,12.50
2018-09-23T04:20:42.206Z,12.50
2018-09-23T04:23:11.074Z,12.40
2018-09-23T04:25:39.950Z,12.40
2018-09-23T04:28:08.826Z,12.40
2018-09-23T04:30:37.706Z,12.40
2018-09-23T04:33:06.585Z,12.40
2018-09-23T04:35:35.475Z,12.30
2018-09-23T04:38:04.411Z,12.30
2018-09-23T04:40:33.351Z,12.30
2018-09-23T04:43:02.343Z,12.20
2018-09-23T04:45:31.383Z,12.20
2018-09-23T04:48:00.366Z,12.20
2018-09-23T04:50:29.333Z,12.10
2018-09-23T04:52:58.403Z,12.10
2018-09-23T04:55:27.326Z,12.10
2018-09-23T04:57:56.147Z,10.40
2018-09-23T05:00:25.011Z,12.10
2018-09-23T05:02:53.899Z,12.00
2018-09-23T05:05:22.894Z,12.00
2018-09-23T05:07:51.762Z,12.00
2018-09-23T05:10:20.674Z,11.90
2018-09-23T05:12:49.538Z,11.90
2018-09-23T05:15:18.430Z,11.90
2018-09-23T05:17:47.303Z,11.90
2018-09-23T05:20:16.190Z,11.90
2018-09-23T05:22:45.063Z,11.80
2018-09-23T05:25:13.954Z,11.80
2018-09-23T05:27:42.831Z,11.80
2018-09-23T05:30:11.718Z,11.90
2018-09-23T05:32:40.570Z,11.90
2018-09-23T05:35:09.499Z,11.80
2018-09-23T05:37:38.358Z,11.80
2018-09-23T05:40:07.991Z,11.80
2018-09-23T05:42:36.890Z,11.80
2018-09-23T05:45:06.663Z,11.80
2018-09-23T05:47:35.519Z,11.90
2018-09-23T05:50:04.778Z,11.80
2018-09-23T05:52:33.687Z,11.90
2018-09-23T05:55:02.617Z,11.90
2018-09-23T05:57:31.520Z,11.90
2018-09-23T06:00:00.488Z,11.90
2018-09-23T06:02:29.500Z,11.90
2018-09-23T06:04:58.473Z,11.90
2018-09-23T06:07:27.404Z,11.90
2018-09-23T06:09:56.335Z,12.00
2018-09-23T06:12:25.250Z,12.00
2018-09-23T06:14:54.115Z,12.00
2018-09-23T06:17:23.035Z,12.00
2018-09-23T06:19:51.944Z,12.00
2018-09-23T06:22:20.840Z,12.10
2018-09-23T06:24:49.694Z,12.10
2018-09-23T06:27:18.587Z,12.20
2018-09-23T06:29:47.547Z,12.10
2018-09-23T06:32:16.436Z,12.20
2018-09-23T06:34:45.306Z,12.20
2018-09-23T06:37:14.278Z,12.20
2018-09-23T06:39:43.148Z,12.30
2018-09-23T06:42:12.030Z,12.30
2018-09-23T06:44:40.915Z,12.40
2018-09-23T06:47:09.878Z,12.40
2018-09-23T06:49:38.746Z,12.40
2018-09-23T06:52:11.682Z,12.40
2018-09-23T06:54:40.546Z,12.30
2018-09-23T06:57:09.537Z,12.30
2018-09-23T06:59:38.361Z,12.40
2018-09-23T07:02:07.242Z,12.50
2018-09-23T07:04:36.215Z,12.60
2018-09-23T07:07:05.038Z,12.70
2018-09-23T07:09:33.924Z,12.80
2018-09-23T07:12:02.818Z,12.80
2018-09-23T07:14:31.805Z,12.80
2018-09-23T07:17:00.950Z,12.90
2018-09-23T07:19:29.875Z,12.90
2018-09-23T07:21:58.790Z,12.90
2018-09-23T07:24:27.665Z,12.90
2018-09-23T07:26:56.575Z,13.00
2018-09-23T07:29:25.727Z,13.00
2018-09-23T07:31:54.627Z,13.10
2018-09-23T07:34:23.550Z,13.10
2018-09-23T07:36:52.698Z,13.10
2018-09-23T07:39:21.562Z,13.10
2018-09-23T07:41:50.400Z,13.10
2018-09-23T07:44:19.451Z,13.10
2018-09-23T07:46:48.466Z,13.20
2018-09-23T07:49:17.535Z,13.20
2018-09-23T07:51:46.486Z,13.20
2018-09-23T07:54:15.367Z,13.30
2018-09-23T07:56:44.266Z,13.30
2018-09-23T07:59:13.211Z,13.20
2018-09-23T08:01:42.203Z,13.30
2018-09-23T08:04:11.267Z,13.30
2018-09-23T08:06:40.169Z,13.30
2018-09-23T08:09:09.899Z,13.40
2018-09-23T08:11:39.440Z,13.60
2018-09-23T08:14:09.264Z,13.70
2018-09-23T08:16:37.778Z,13.70
2018-09-23T08:19:07.157Z,13.60
2018-09-23T08:21:36.079Z,13.60
2018-09-23T08:24:04.984Z,13.60
2018-09-23T08:26:33.900Z,13.60
2018-09-23T08:29:02.834Z,13.70
2018-09-23T08:31:31.748Z,13.70
2018-09-23T08:34:00.891Z,13.70
2018-09-23T08:36:29.788Z,13.70
2018-09-23T08:38:58.705Z,13.80
2018-09-23T08:41:27.627Z,13.80
2018-09-23T08:43:56.506Z,13.90
2018-09-23T08:46:25.726Z,14.00
2018-09-23T08:48:54.667Z,14.00
2018-09-23T08:51:23.563Z,14.10
2018-09-23T08:53:52.436Z,14.20
2018-09-23T08:56:21.331Z,14.30
2018-09-23T08:58:50.234Z,14.30
2018-09-23T09:01:19.136Z,14.30
2018-09-23T09:03:48.079Z,14.40
2018-09-23T09:06:16.967Z,14.40
2018-09-23T09:08:45.846Z,14.50
2018-09-23T09:11:14.738Z,14.50
2018-09-23T09:13:43.617Z,14.60
2018-09-23T09:16:12.510Z,14.70
2018-09-23T09:18:41.568Z,14.70
2018-09-23T09:21:10.415Z,14.80
2018-09-23T09:23:39.339Z,14.80
2018-09-23T09:26:08.231Z,14.80
2018-09-23T09:28:37.101Z,14.90
2018-09-23T09:31:06.015Z,14.90
2018-09-23T09:33:34.909Z,15.00
2018-09-23T09:36:03.847Z,15.10
2018-09-23T09:38:39.479Z,15.20
2018-09-23T09:41:08.374Z,15.40
2018-09-23T09:43:37.247Z,15.60
2018-09-23T09:46:06.382Z,15.70
2018-09-23T09:48:35.315Z,15.90
2018-09-23T09:51:04.214Z,16.00
2018-09-23T09:53:33.150Z,16.10
2018-09-23T09:56:02.097Z,16.20
2018-09-23T09:58:30.994Z,16.30
2018-09-23T10:00:59.946Z,16.40
2018-09-23T10:03:29.011Z,16.50
2018-09-23T10:05:58.135Z,16.50
2018-09-23T10:08:27.042Z,16.50
2018-09-23T10:10:55.956Z,16.60
2018-09-23T10:13:24.843Z,16.70
2018-09-23T10:15:53.731Z,16.70
2018-09-23T10:18:22.619Z,16.80
2018-09-23T10:20:51.494Z,16.80
2018-09-23T10:23:20.519Z,16.90
2018-09-23T10:25:49.307Z,17.00
2018-09-23T10:28:18.354Z,17.00
2018-09-23T10:30:47.231Z,17.10
2018-09-23T10:33:16.158Z,17.20
2018-09-23T10:35:45.052Z,17.30
2018-09-23T10:38:14.018Z,17.40
2018-09-23T10:40:42.899Z,17.60
2018-09-23T10:43:11.802Z,17.80
2018-09-23T10:45:40.683Z,17.90
2018-09-23T10:48:09.564Z,18.10
2018-09-23T10:50:38.482Z,18.10
2018-09-23T10:53:07.401Z,18.20
2018-09-23T10:55:36.367Z,18.20
2018-09-23T10:58:06.035Z,18.30
2018-09-23T11:00:34.958Z,18.40
2018-09-23T11:03:03.861Z,18.50
2018-09-23T11:05:32.746Z,18.50
2018-09-23T11:08:01.675Z,18.60
2018-09-23T11:10:30.753Z,18.70
2018-09-23T11:12:59.718Z,18.70
2018-09-23T11:15:28.651Z,18.80
2018-09-23T11:17:57.554Z,18.80
2018-09-23T11:20:26.454Z,18.80
2018-09-23T11:22:55.345Z,18.80
2018-09-23T11:25:24.226Z,18.80
2018-09-23T11:27:53.130Z,18.80
2018-09-23T11:30:22.161Z,18.80
2018-09-23T11:32:51.164Z,18.80
2018-09-23T11:35:20.084Z,18.90
2018-09-23T11:37:48.959Z,18.90
2018-09-23T11:40:17.959Z,18.90
2018-09-23T11:42:46.899Z,18.90
2018-09-23T11:45:15.751Z,18.90
2018-09-23T11:47:44.650Z,18.90
2018-09-23T11:50:13.555Z,18.90
2018-09-23T11:52:42.515Z,18.90
2018-09-23T11:55:11.411Z,18.90
2018-09-23T11:57:40.304Z,18.90
2018-09-23T12:00:09.415Z,18.90
2018-09-23T12:02:38.367Z,18.90
2018-09-23T12:05:07.275Z,19.00
2018-09-23T12:07:36.183Z,18.90
2018-09-23T12:10:05.135Z,19.00
2018-09-23T12:12:34.102Z,19.00
2018-09-23T12:15:03.051Z,19.00
2018-09-23T12:17:32.037Z,19.00
2018-09-23T12:20:00.962Z,19.10
2018-09-23T12:22:30.066Z,19.10
2018-09-23T12:24:59.022Z,19.20
2018-09-23T12:27:27.954Z,19.20
2018-09-23T12:29:56.847Z,19.20
2018-09-23T12:32:25.784Z,19.30
2018-09-23T12:34:54.656Z,19.40
2018-09-23T12:37:23.548Z,19.50
2018-09-23T12:39:52.553Z,19.80
2018-09-23T12:42:21.403Z,19.90
2018-09-23T12:44:50.346Z,20.00
2018-09-23T12:47:19.239Z,20.10
2018-09-23T12:49:48.167Z,20.30
2018-09-23T12:52:17.067Z,20.50
2018-09-23T12:54:45.958Z,20.80
2018-09-23T12:57:14.843Z,20.90
2018-09-23T12:59:43.732Z,20.90
2018-09-23T13:02:12.630Z,20.80
2018-09-23T13:04:43.544Z,20.80
2018-09-23T13:07:12.446Z,20.90
2018-09-23T13:09:41.354Z,20.80
2018-09-23T13:12:10.264Z,21.00
2018-09-23T13:14:39.155Z,21.50
2018-09-23T13:17:08.071Z,22.10
2018-09-23T13:19:37.046Z,22.30
2018-09-23T13:22:05.912Z,22.70
2018-09-23T13:24:34.794Z,23.20
2018-09-23T13:27:03.778Z,23.40
2018-09-23T13:29:32.671Z,23.10
2018-09-23T13:32:01.659Z,22.80
2018-09-23T13:34:30.635Z,22.50
2018-09-23T13:36:59.546Z,23.00
2018-09-23T13:39:28.582Z,23.40
2018-09-23T13:41:57.486Z,24.20
2018-09-23T13:44:26.370Z,24.60
2018-09-23T13:46:55.362Z,25.20
2018-09-23T13:49:24.493Z,25.30
2018-09-23T13:51:53.444Z,25.60
2018-09-23T13:54:22.339Z,26.00
2018-09-23T13:56:51.219Z,25.50
2018-09-23T13:59:20.099Z,25.00
2018-09-23T14:01:48.994Z,24.70
2018-09-23T14:04:17.883Z,24.80
2018-09-23T14:06:46.759Z,24.60
2018-09-23T14:09:15.706Z,24.70
2018-09-23T14:11:44.626Z,24.70
2018-09-23T14:14:13.498Z,24.80
2018-09-23T14:16:42.427Z,24.90
2018-09-23T14:19:11.513Z,24.70
2018-09-23T14:21:40.390Z,24.60
2018-09-23T14:24:09.285Z,24.50
2018-09-23T14:26:38.190Z,24.50
2018-09-23T14:29:07.190Z,24.60
2018-09-23T14:31:36.266Z,25.30
2018-09-23T14:34:05.279Z,25.60
2018-09-23T14:36:34.224Z,25.70
2018-09-23T14:39:03.543Z,25.90
2018-09-23T14:41:32.415Z,25.90
2018-09-23T14:44:01.358Z,25.60
2018-09-23T14:46:30.258Z,25.40
2018-09-23T14:48:59.327Z,24.80
2018-09-23T14:51:28.291Z,24.40
2018-09-23T14:53:57.234Z,24.30
2018-09-23T14:56:26.145Z,24.10
2018-09-23T14:58:55.034Z,24.00
2018-09-23T15:01:23.918Z,23.90
2018-09-23T15:03:52.799Z,23.80
2018-09-23T15:06:21.733Z,23.80
2018-09-23T15:08:50.566Z,23.80
2018-09-23T15:11:19.426Z,23.90
2018-09-23T15:13:48.339Z,23.80
2018-09-23T15:16:17.182Z,23.80
2018-09-23T15:18:46.065Z,23.60
2018-09-23T15:21:14.983Z,23.60
2018-09-23T15:23:43.849Z,23.50
2018-09-23T15:26:12.799Z,23.60
2018-09-23T15:28:41.690Z,23.70
2018-09-23T15:31:10.611Z,23.80
2018-09-23T15:33:39.487Z,23.80
2018-09-23T15:36:08.374Z,23.70
2018-09-23T15:38:37.265Z,23.60
2018-09-23T15:41:06.711Z,23.60
2018-09-23T15:43:35.635Z,23.50
2018-09-23T15:46:04.755Z,23.50
2018-09-23T15:48:33.789Z,23.50
2018-09-23T15:51:02.679Z,23.60
2018-09-23T15:53:31.726Z,23.60
2018-09-23T15:56:00.619Z,23.60
2018-09-23T15:58:29.976Z,23.60
2018-09-23T16:00:58.905Z,23.60
2018-09-23T16:03:27.798Z,23.50
2018-09-23T16:05:56.697Z,23.50
2018-09-23T16:08:25.601Z,23.50
2018-09-23T16:10:54.462Z,23.50
2018-09-23T16:13:23.374Z,23.30
2018-09-23T16:15:52.257Z,23.10
2018-09-23T16:18:21.254Z,22.90
2018-09-23T16:20:50.069Z,18.40
2018-09-23T16:23:19.067Z,16.30
2018-09-23T16:25:47.966Z,15.60
2018-09-23T16:28:16.875Z,15.30
2018-09-23T16:30:45.842Z,15.20
2018-09-23T16:33:14.789Z,15.10
2018-09-23T16:35:43.675Z,15.00
2018-09-23T16:38:12.584Z,15.00
2018-09-23T16:40:41.498Z,15.00
2018-09-23T16:43:10.390Z,14.90
2018-09-23T16:45:39.423Z,14.90
2018-09-23T16:48:08.339Z,15.00
2018-09-23T16:50:38.310Z,15.00
2018-09-23T16:53:07.224Z,15.00
2018-09-23T16:55:36.226Z,15.00
2018-09-23T16:58:05.276Z,15.00
2018-09-23T17:00:34.220Z,15.00
2018-09-23T17:03:03.106Z,15.10
2018-09-23T17:05:32.007Z,15.10
2018-09-23T17:08:00.927Z,15.10
2018-09-23T17:10:29.839Z,15.10
2018-09-23T17:12:58.846Z,15.10
2018-09-23T17:15:27.727Z,15.10
2018-09-23T17:17:56.627Z,15.10
2018-09-23T17:20:25.514Z,15.20
2018-09-23T17:22:54.405Z,15.20
2018-09-23T17:25:23.283Z,15.20
2018-09-23T17:27:53.965Z,15.20
2018-09-23T17:30:23.086Z,15.20
2018-09-23T17:32:52.056Z,15.20
2018-09-23T17:35:20.975Z,15.20
2018-09-23T17:37:49.887Z,15.20
2018-09-23T17:40:18.804Z,15.20
2018-09-23T17:42:47.702Z,15.20
2018-09-23T17:45:16.590Z,15.30
2018-09-23T17:47:45.634Z,15.20
2018-09-23T17:50:14.536Z,15.20
2018-09-23T17:52:43.431Z,15.20
2018-09-23T17:55:12.314Z,15.20
2018-09-23T17:57:41.415Z,15.20
2018-09-23T18:00:10.301Z,15.20
2018-09-23T18:02:39.187Z,15.30
2018-09-23T18:05:08.126Z,15.20
2018-09-23T18:07:36.997Z,15.20
2018-09-23T18:10:05.915Z,15.20
2018-09-23T18:12:34.806Z,15.20
2018-09-23T18:15:03.810Z,15.30
2018-09-23T18:17:32.732Z,15.20
2018-09-23T18:20:01.626Z,15.20
2018-09-23T18:22:30.523Z,15.10
2018-09-23T18:24:59.446Z,15.10
2018-09-23T18:27:28.338Z,15.10
2018-09-23T18:29:57.294Z,15.10
2018-09-23T18:32:26.148Z,15.10
2018-09-23T18:34:55.051Z,15.10
2018-09-23T18:37:24.018Z,15.00
2018-09-23T18:39:52.831Z,15.00
2018-09-23T18:42:21.709Z,15.00
2018-09-23T18:44:50.595Z,14.90
2018-09-23T18:47:19.461Z,14.90
2018-09-23T18:49:48.531Z,14.80
2018-09-23T18:52:17.355Z,14.80
2018-09-23T18:54:51.742Z,14.70
2018-09-23T18:57:20.639Z,14.60
2018-09-23T18:59:49.679Z,16.00
2018-09-23T19:02:18.822Z,14.50
2018-09-23T19:04:47.735Z,14.30
2018-09-23T19:07:17.173Z,14.30
2018-09-23T19:09:46.047Z,14.20
2018-09-23T19:12:14.927Z,14.20
2018-09-23T19:14:43.974Z,14.00
2018-09-23T19:17:12.839Z,13.90
2018-09-23T19:20:18.706Z,13.90
2018-09-23T19:22:52.929Z,13.90
2018-09-23T19:25:21.827Z,13.80
2018-09-23T19:27:50.694Z,13.70
2018-09-23T19:30:19.596Z,13.70
2018-09-23T19:32:48.488Z,13.50
2018-09-23T19:35:17.378Z,13.30
2018-09-23T19:37:46.262Z,13.10
2018-09-23T19:40:15.240Z,13.10
2018-09-23T19:42:44.438Z,13.00
2018-09-23T19:45:13.419Z,12.90
2018-09-23T19:47:42.446Z,12.80
2018-09-23T19:50:11.435Z,12.80
2018-09-23T19:52:40.406Z,12.70
2018-09-23T19:55:09.327Z,12.70
2018-09-23T19:57:39.258Z,12.60
2018-09-23T20:00:08.222Z,12.50
2018-09-23T20:02:37.105Z,12.40
2018-09-23T20:05:06.059Z,12.20
2018-09-23T20:07:35.719Z,12.10
2018-09-23T20:10:04.906Z,12.00
2018-09-23T20:12:33.915Z,11.90
2018-09-23T20:15:03.900Z,11.70
2018-09-23T20:17:33.018Z,11.40
2018-09-23T20:20:01.867Z,11.20
2018-09-23T20:22:30.756Z,11.10
2018-09-23T20:24:59.658Z,11.00
2018-09-23T20:27:28.564Z,10.90
2018-09-23T20:29:58.144Z,10.80
2018-09-23T20:32:27.055Z,10.70
2018-09-23T20:34:56.015Z,10.70
2018-09-23T20:37:24.879Z,10.70
2018-09-23T20:39:53.837Z,10.60
2018-09-23T20:42:22.731Z,10.60
2018-09-23T20:44:51.637Z,10.50
2018-09-23T20:47:20.523Z,10.40
2018-09-23T20:49:49.418Z,10.30
2018-09-23T20:52:18.301Z,10.40
2018-09-23T20:54:47.194Z,10.30
2018-09-23T20:57:16.107Z,10.30
2018-09-23T20:59:45.043Z,10.20
2018-09-23T21:02:17.836Z,10.20
2018-09-23T21:04:46.674Z,10.10
2018-09-23T21:07:15.535Z,10.00
2018-09-23T21:09:44.423Z,10.10
2018-09-23T21:12:13.310Z,10.10
2018-09-23T21:14:44.283Z,10.10
2018-09-23T21:17:13.147Z,10.10
2018-09-23T21:19:42.038Z,10.00
2018-09-23T21:22:10.914Z,10.00
2018-09-23T21:24:39.798Z,9.90
2018-09-23T21:27:08.670Z,9.90
2018-09-23T21:29:37.646Z,9.90
2018-09-23T21:32:06.742Z,9.80
2018-09-23T21:34:35.755Z,9.80
2018-09-23T21:37:04.672Z,9.80
2018-09-23T21:39:33.566Z,9.80
2018-09-23T21:42:02.452Z,9.90
2018-09-23T21:44:31.367Z,9.80
2018-09-23T21:47:00.263Z,9.90
2018-09-23T21:49:29.282Z,9.80
2018-09-23T21:51:58.399Z,9.90
2018-09-23T21:54:27.627Z,9.80
2018-09-23T21:56:56.486Z,9.80
2018-09-23T21:59:30.803Z,9.80
2018-09-23T22:01:59.705Z,9.80
2018-09-23T22:04:28.600Z,9.70
2018-09-23T22:06:57.495Z,9.70
2018-09-23T22:09:26.439Z,9.70
2018-09-23T22:11:55.309Z,9.60
2018-09-23T22:14:24.190Z,9.70
2018-09-23T22:16:53.087Z,9.60
2018-09-23T22:19:21.974Z,9.50
2018-09-23T22:21:50.878Z,9.50
2018-09-23T22:24:19.814Z,9.50
2018-09-23T22:26:48.693Z,9.50
2018-09-23T22:29:17.578Z,9.40
2018-09-23T22:31:46.451Z,9.40
2018-09-23T22:34:15.335Z,9.40
2018-09-23T22:36:44.214Z,9.40
2018-09-23T22:39:13.103Z,9.40
2018-09-23T22:41:42.075Z,9.30
2018-09-23T22:44:11.058Z,9.30
2018-09-23T22:46:40.146Z,9.20
2018-09-23T22:49:09.043Z,9.20
2018-09-23T22:51:37.907Z,9.20
2018-09-23T22:54:06.883Z,9.10
2018-09-23T22:56:35.764Z,9.20
2018-09-23T22:59:04.735Z,9.20
2018-09-23T23:01:33.715Z,9.20
2018-09-23T23:04:02.594Z,9.10
2018-09-23T23:06:31.498Z,9.00
2018-09-23T23:09:00.425Z,8.90
2018-09-23T23:11:29.359Z,8.90
2018-09-23T23:13:58.257Z,8.80
2018-09-23T23:16:27.183Z,8.80
2018-09-23T23:18:56.102Z,8.80
2018-09-23T23:21:24.966Z,8.70
2018-09-23T23:23:53.862Z,8.80
2018-09-23T23:26:22.729Z,8.70
2018-09-23T23:28:51.623Z,8.70
2018-09-23T23:31:20.482Z,8.70
2018-09-23T23:33:49.355Z,8.70
2018-09-23T23:36:18.250Z,8.70
2018-09-23T23:38:47.134Z,8.60
2018-09-23T23:41:16.022Z,8.60
2018-09-23T23:43:44.878Z,8.60
2018-09-23T23:46:13.767Z,8.50
2018-09-23T23:48:42.618Z,8.50
2018-09-23T23:51:11.494Z,8.50
2018-09-23T23:53:40.499Z,8.50
2018-09-23T23:56:09.527Z,8.40
2018-09-23T23:58:38.530Z,8.40
